Terminal Aerodrome Forecast
Issued by NWS

Current Version | Previous Version | Graphics & Text | Print | Product List | Glossary On
Versions: 1 2 3 4 5 6 7 8 9 10 11 12 13 14 15 16 17 18 19
000
FTUS41 KILN 251100
TAFLUK
TAF
KLUK 251136Z 2512/2612 19012G18KT P6SM SCT035 OVC050
     FM251300 23013G23KT P6SM SCT035 BKN150
     FM252200 23008KT P6SM SCT040 BKN120
     FM260600 15007KT 4SM -SHRA BR VCTS OVC028CB=

USA.gov is the U.S. government's official web portal to all federal, state and local government web resources and services.